Time;durP1;ratioP1;P1;durP2;ratioP2;P2;SDS_P1;SDS_P2;PMS_P1;PMS_P2;Temp;Humidity;BMP_temperature;BMP_pressure;BME280_temperature;BME280_humidity;BME280_pressure;Samples;Min_cycle;Max_cycle;Signal;HPM_P1;HPM_P2
2022/05/22 00:00:00;;;;;;;;;6.00;6.00;;;;;21.27;48.22;101362.63;5057610;28;47378;-74
2022/05/22 00:02:26;;;;;;;;;6.75;5.00;;;;;21.00;47.72;101309.22;5073763;28;46285;-74
2022/05/22 00:04:51;;;;;;;;;4.50;4.00;;;;;21.03;48.26;101324.44;5070612;28;45455;-74
2022/05/22 00:07:17;;;;;;;;;6.50;5.25;;;;;21.15;48.29;101356.19;5061437;28;45504;-74
2022/05/22 00:09:42;;;;;;;;;5.25;4.25;;;;;20.97;48.11;101325.72;5067262;27;46272;-75
2022/05/22 00:12:09;;;;;;;;;5.25;5.25;;;;;20.94;48.36;101322.34;5088221;27;45432;-75
2022/05/22 00:14:35;;;;;;;;;5.00;4.50;;;;;20.97;48.27;101323.00;5060721;28;45441;-75
2022/05/22 00:17:01;;;;;;;;;4.00;4.00;;;;;21.09;48.40;101351.16;5062213;28;45348;-74
2022/05/22 00:19:31;;;;;;;;;6.50;6.00;;;;;20.99;48.67;101333.75;5073417;28;47519;-75
2022/05/22 00:21:57;;;;;;;;;4.00;4.00;;;;;20.96;48.10;101342.97;5071564;28;45778;-75
2022/05/22 00:24:25;;;;;;;;;6.00;5.00;;;;;21.05;48.24;101347.78;5068696;27;45486;-74
2022/05/22 00:26:50;;;;;;;;;5.25;4.25;;;;;20.79;48.43;101299.81;5068657;27;45485;-75
2022/05/22 00:29:17;;;;;;;;;5.00;4.00;;;;;20.92;48.51;101333.31;5075487;28;46381;-75
2022/05/22 00:31:43;;;;;;;;;3.50;2.75;;;;;20.74;48.64;101305.53;5082773;27;45449;-74
2022/05/22 00:34:09;;;;;;;;;5.00;5.00;;;;;20.91;48.98;101342.41;5081701;27;45238;-75
2022/05/22 00:36:34;;;;;;;;;5.50;4.50;;;;;20.90;48.77;101329.81;5076265;27;45338;-74
2022/05/22 00:39:01;;;;;;;;;4.00;4.00;;;;;20.95;48.76;101337.63;5074343;27;46075;-74
2022/05/22 00:41:27;;;;;;;;;4.00;4.00;;;;;20.85;48.96;101330.13;5084548;27;45652;-75
2022/05/22 00:43:54;;;;;;;;;4.00;4.00;;;;;20.94;48.79;101334.06;5073434;28;45368;-74
2022/05/22 00:46:22;;;;;;;;;3.00;3.00;;;;;20.77;48.86;101302.63;5074049;28;45480;-74
2022/05/22 00:48:49;;;;;;;;;5.50;3.00;;;;;20.92;49.00;101322.44;5068458;28;45424;-75
2022/05/22 00:51:24;;;;;;;;;4.00;4.00;;;;;20.97;49.02;101319.44;5066504;28;45614;-75
2022/05/22 00:53:55;;;;;;;;;4.00;3.00;;;;;20.93;49.24;101310.59;5071980;28;45279;-75
2022/05/22 00:56:25;;;;;;;;;2.50;2.25;;;;;20.98;49.08;101313.00;5083942;27;45369;-75
2022/05/22 00:58:54;;;;;;;;;3.25;3.25;;;;;20.72;48.84;101275.81;5071874;27;45559;-74
2022/05/22 01:01:20;;;;;;;;;5.00;3.75;;;;;20.76;49.02;101281.88;5063597;28;45312;-74
2022/05/22 01:03:46;;;;;;;;;4.00;4.00;;;;;20.79;49.22;101292.53;5071677;27;45382;-75
2022/05/22 01:06:16;;;;;;;;;4.00;4.00;;;;;20.79;48.89;101294.38;5061340;28;45323;-74
2022/05/22 01:08:43;;;;;;;;;3.00;3.00;;;;;20.72;49.25;101277.66;5061571;28;45649;-74
2022/05/22 01:11:12;;;;;;;;;5.50;4.50;;;;;20.77;49.48;101296.34;5089748;27;45589;-75
2022/05/22 01:13:47;;;;;;;;;4.00;3.25;;;;;20.56;49.09;101264.19;5069797;28;45862;-74
2022/05/22 01:16:13;;;;;;;;;3.25;3.25;;;;;20.67;49.36;101286.09;5059765;28;45338;-74
2022/05/22 01:18:51;;;;;;;;;6.00;4.00;;;;;20.63;49.50;101291.81;5060292;28;47190;-75
2022/05/22 01:21:22;;;;;;;;;4.25;3.00;;;;;20.42;49.63;101247.97;5074282;27;45678;-74
2022/05/22 01:23:48;;;;;;;;;6.25;6.00;;;;;20.60;49.63;101275.69;5063496;28;45521;-74
2022/05/22 01:26:14;;;;;;;;;4.50;4.50;;;;;20.48;49.94;101256.59;5061260;28;45578;-74
2022/05/22 01:28:40;;;;;;;;;4.75;3.25;;;;;20.35;49.84;101239.38;5061100;28;45257;-74
2022/05/22 01:31:05;;;;;;;;;4.50;4.50;;;;;20.51;49.86;101269.06;5071190;27;45378;-74
2022/05/22 01:33:33;;;;;;;;;4.50;4.50;;;;;20.38;49.34;101255.47;5072654;27;45369;-74
2022/05/22 01:35:59;;;;;;;;;4.00;4.00;;;;;20.53;49.70;101275.25;5088652;27;45335;-74
2022/05/22 01:38:24;;;;;;;;;2.50;2.50;;;;;20.51;49.56;101271.75;5075317;27;46105;-74
2022/05/22 01:40:49;;;;;;;;;4.00;3.00;;;;;20.38;49.36;101246.44;5073637;27;45433;-74
2022/05/22 01:43:15;;;;;;;;;3.75;2.75;;;;;20.53;49.68;101276.13;5075922;28;45428;-74
2022/05/22 01:45:42;;;;;;;;;3.75;3.75;;;;;20.50;49.85;101270.03;5060752;28;45347;-74
2022/05/22 01:48:10;;;;;;;;;3.00;3.00;;;;;20.47;50.06;101273.81;5060628;28;45376;-74
2022/05/22 01:50:36;;;;;;;;;3.50;3.50;;;;;20.39;49.94;101270.72;5074650;28;45574;-74
2022/05/22 01:53:02;;;;;;;;;4.00;3.75;;;;;20.39;49.76;101259.03;5075210;28;45235;-74
2022/05/22 01:55:28;;;;;;;;;3.00;3.00;;;;;20.13;50.03;101219.09;5070854;27;45241;-74
2022/05/22 01:57:53;;;;;;;;;2.50;2.50;;;;;20.25;49.70;101228.25;5074383;27;45626;-74
2022/05/22 02:00:20;;;;;;;;;3.00;3.00;;;;;20.48;49.97;101267.44;5060350;28;45440;-74
2022/05/22 02:02:47;;;;;;;;;4.25;4.25;;;;;20.24;49.79;101225.66;5060585;28;45525;-74
2022/05/22 02:05:14;;;;;;;;;5.00;4.25;;;;;20.29;49.51;101237.06;5060740;28;45302;-74
2022/05/22 02:10:24;;;;;;;;;3.75;3.75;;;;;20.35;49.87;101250.22;5085231;27;45378;-74
2022/05/22 02:12:51;;;;;;;;;2.75;2.75;;;;;20.13;49.49;101220.91;5075552;27;45259;-74
2022/05/22 02:15:17;;;;;;;;;2.50;2.50;;;;;20.22;49.86;101247.44;5071407;28;45558;-74
2022/05/22 02:17:43;;;;;;;;;4.25;3.25;;;;;20.03;49.59;101217.06;5061132;27;46272;-74
2022/05/22 02:20:08;;;;;;;;;4.00;4.00;;;;;20.22;49.76;101261.00;5071345;28;45210;-74
2022/05/22 02:22:46;;;;;;;;;4.00;4.00;;;;;20.13;49.83;101250.72;5065544;27;45309;-74
2022/05/22 02:25:13;;;;;;;;;4.50;4.50;;;;;20.23;49.96;101269.97;5066015;27;45316;-75
2022/05/22 02:27:39;;;;;;;;;4.00;4.00;;;;;20.20;49.72;101256.63;5060151;28;45605;-74
2022/05/22 02:30:05;;;;;;;;;2.00;2.00;;;;;20.01;49.94;101219.88;5075244;28;45833;-74
2022/05/22 02:32:31;;;;;;;;;5.00;4.00;;;;;20.27;49.64;101266.13;5087718;27;45314;-74
2022/05/22 02:34:56;;;;;;;;;5.00;3.50;;;;;20.18;49.66;101237.78;5056821;27;45400;-74
2022/05/22 02:37:22;;;;;;;;;5.75;2.75;;;;;20.20;49.61;101243.97;5061206;27;46495;-74
2022/05/22 02:39:48;;;;;;;;;3.00;3.00;;;;;20.25;49.74;101246.38;5077730;27;45235;-74
2022/05/22 02:42:14;;;;;;;;;3.00;3.00;;;;;20.25;49.85;101252.66;5070008;27;45799;-74
2022/05/22 02:44:39;;;;;;;;;4.00;2.75;;;;;20.17;49.61;101244.16;5079747;27;45397;-74
2022/05/22 02:47:05;;;;;;;;;3.00;3.00;;;;;20.22;49.47;101261.00;5079727;27;45326;-74
2022/05/22 02:49:32;;;;;;;;;4.00;2.00;;;;;20.09;49.61;101230.22;5078714;28;46185;-74
2022/05/22 02:51:59;;;;;;;;;2.50;2.50;;;;;20.27;49.88;101261.56;5078331;28;45524;-74
2022/05/22 02:54:25;;;;;;;;;2.50;2.50;;;;;20.39;49.79;101288.84;5078731;28;45555;-74
2022/05/22 02:56:51;;;;;;;;;3.00;3.00;;;;;20.20;49.87;101248.50;5083328;27;45351;-74
2022/05/22 02:59:16;;;;;;;;;2.00;2.00;;;;;20.42;49.63;101280.53;5076770;28;45301;-74
2022/05/22 03:01:41;;;;;;;;;2.25;2.25;;;;;20.41;49.50;101279.63;5080231;27;45282;-74
2022/05/22 03:04:07;;;;;;;;;4.00;3.00;;;;;20.42;49.76;101285.94;5078449;27;45509;-74
2022/05/22 03:06:38;;;;;;;;;3.00;3.00;;;;;20.48;49.76;101285.53;5080039;27;46663;-74
2022/05/22 03:09:04;;;;;;;;;4.25;3.25;;;;;20.45;49.55;101275.75;5079901;27;45416;-74
2022/05/22 03:11:30;;;;;;;;;2.00;2.00;;;;;20.47;49.72;101286.50;5087033;27;45254;-74
2022/05/22 03:13:55;;;;;;;;;4.00;3.00;;;;;20.25;49.44;101247.25;5077634;27;45394;-74
2022/05/22 03:16:21;;;;;;;;;2.25;2.25;;;;;20.26;49.68;101245.38;5069004;28;48032;-74
2022/05/22 03:18:46;;;;;;;;;2.75;2.75;;;;;20.27;49.51;101244.44;5059380;28;45361;-74
2022/05/22 03:21:13;;;;;;;;;4.50;4.00;;;;;20.40;49.40;101253.50;5076383;28;45481;-74
2022/05/22 03:23:38;;;;;;;;;3.75;3.50;;;;;20.27;49.35;101226.31;5068111;27;45442;-74
2022/05/22 03:26:03;;;;;;;;;5.75;5.00;;;;;20.42;49.45;101242.56;5072909;28;46098;-74
2022/05/22 03:28:29;;;;;;;;;4.00;3.75;;;;;20.44;49.10;101235.19;5059554;28;45342;-74
2022/05/22 03:30:54;;;;;;;;;2.50;2.50;;;;;20.22;49.16;101201.34;5060517;27;45397;-74
2022/05/22 03:33:19;;;;;;;;;5.75;3.50;;;;;20.22;49.09;101206.78;5072576;28;45305;-74
2022/05/22 03:35:45;;;;;;;;;4.50;3.00;;;;;20.30;49.26;101214.41;5070482;27;46076;-74
2022/05/22 03:38:10;;;;;;;;;5.25;4.00;;;;;20.23;49.64;101211.25;5065001;27;45484;-74
2022/05/22 03:40:45;;;;;;;;;2.50;2.25;;;;;20.11;49.62;101195.75;5075279;27;45474;-75
2022/05/22 03:43:11;;;;;;;;;2.00;2.00;;;;;20.07;49.27;101192.38;5074697;28;46145;-74
2022/05/22 03:45:37;;;;;;;;;4.25;4.00;;;;;20.14;49.55;101201.00;5061007;28;46417;-74
2022/05/22 03:48:02;;;;;;;;;3.25;2.50;;;;;20.24;49.36;101218.38;5070576;27;45348;-74
2022/05/22 03:50:29;;;;;;;;;3.00;3.00;;;;;20.19;49.55;101206.97;5078587;27;45456;-74
2022/05/22 03:52:56;;;;;;;;;2.00;2.00;;;;;20.16;49.55;101201.75;5067823;27;45278;-74
2022/05/22 03:55:22;;;;;;;;;3.50;2.50;;;;;20.34;49.32;101235.78;5069596;27;46136;-74
2022/05/22 03:57:48;;;;;;;;;4.00;3.25;;;;;19.99;49.53;101173.03;5085838;27;45340;-74
2022/05/22 04:00:17;;;;;;;;;4.00;4.00;;;;;20.18;49.52;101199.84;5062561;28;45454;-74
2022/05/22 04:02:43;;;;;;;;;2.00;2.00;;;;;20.31;49.49;101214.31;5062337;28;45436;-74
2022/05/22 04:05:09;;;;;;;;;3.75;3.75;;;;;20.28;49.19;101200.97;5070803;28;45350;-74
2022/05/22 04:07:43;;;;;;;;;3.50;3.25;;;;;20.32;49.08;101213.31;5066291;27;45168;-74
2022/05/22 04:10:11;;;;;;;;;3.00;3.00;;;;;20.24;49.13;101198.56;5061895;27;45405;-74
2022/05/22 04:12:37;;;;;;;;;4.75;3.75;;;;;20.20;49.29;101200.59;5074335;28;45758;-74
2022/05/22 04:15:08;;;;;;;;;3.00;3.00;;;;;20.03;49.32;101169.19;5068095;28;45341;-74
2022/05/22 04:17:34;;;;;;;;;3.50;2.25;;;;;19.94;48.93;101157.09;5063590;27;45401;-74
2022/05/22 04:20:00;;;;;;;;;5.00;3.75;;;;;20.06;48.76;101173.53;5071911;28;45523;-74
2022/05/22 04:22:25;;;;;;;;;2.50;2.50;;;;;19.96;49.03;101175.94;5073790;27;45428;-74
2022/05/22 04:27:39;;;;;;;;;2.75;2.00;;;;;19.87;49.03;101180.13;5075757;28;45238;-74
2022/05/22 04:30:06;;;;;;;;;6.75;4.25;;;;;19.89;48.80;101185.47;5061559;28;45310;-74
2022/05/22 04:32:31;;;;;;;;;3.00;2.00;;;;;19.98;49.27;101203.84;5089946;27;45313;-74
2022/05/22 04:34:57;;;;;;;;;1.50;1.50;;;;;19.82;49.64;101176.84;5076898;27;48043;-74
2022/05/22 04:37:22;;;;;;;;;3.00;3.00;;;;;19.75;49.16;101162.84;5081280;27;45386;-74
2022/05/22 04:39:47;;;;;;;;;4.00;4.00;;;;;19.90;49.50;101190.78;5078119;27;45435;-74
2022/05/22 04:42:13;;;;;;;;;3.50;3.00;;;;;19.91;49.18;101197.06;5062554;27;45844;-74
2022/05/22 04:44:38;;;;;;;;;3.75;2.75;;;;;19.87;49.33;101193.69;5068338;28;45510;-74
2022/05/22 04:47:04;;;;;;;;;2.50;2.00;;;;;19.87;49.34;101201.81;5081094;27;45349;-74
2022/05/22 04:49:29;;;;;;;;;4.00;3.00;;;;;19.78;49.42;101191.56;5067877;28;45160;-74
2022/05/22 04:51:58;;;;;;;;;4.00;3.25;;;;;19.68;49.24;101177.72;5061371;28;45258;-74
2022/05/22 04:54:23;;;;;;;;;4.50;3.00;;;;;19.70;49.42;101194.72;5076295;28;47500;-74
2022/05/22 04:56:49;;;;;;;;;4.50;4.00;;;;;19.69;49.28;101190.28;5089992;27;45407;-74
2022/05/22 04:59:14;;;;;;;;;2.00;2.00;;;;;19.87;49.51;101222.63;5068710;27;45338;-74
2022/05/22 05:01:39;;;;;;;;;4.00;4.00;;;;;19.72;49.61;101198.19;5077008;28;45732;-74
2022/05/22 05:04:05;;;;;;;;;3.00;3.00;;;;;19.90;49.70;101220.56;5061555;28;46242;-74
2022/05/22 05:06:30;;;;;;;;;5.75;5.00;;;;;19.77;49.41;101195.25;5061536;28;45306;-74
2022/05/22 05:08:56;;;;;;;;;3.50;3.50;;;;;19.79;49.70;101199.56;5061708;28;45878;-74
2022/05/22 05:11:21;;;;;;;;;5.00;4.00;;;;;19.82;49.42;101217.50;5067188;27;45271;-74
2022/05/22 05:13:47;;;;;;;;;5.00;4.00;;;;;19.66;49.45;101193.16;5072982;28;47256;-74
2022/05/22 05:16:13;;;;;;;;;3.25;2.50;;;;;19.69;49.53;101187.56;5061059;28;45435;-74
2022/05/22 05:18:39;;;;;;;;;3.00;3.00;;;;;19.63;49.37;101179.84;5061413;28;45357;-74
2022/05/22 05:21:10;;;;;;;;;2.25;2.25;;;;;19.61;49.44;101177.25;5073163;28;45952;-74
2022/05/22 05:23:36;;;;;;;;;4.25;3.50;;;;;19.88;49.57;101217.09;5067575;28;46057;-74
2022/05/22 05:26:02;;;;;;;;;3.00;3.00;;;;;19.86;49.58;101210.03;5087092;27;45425;-74
2022/05/22 05:28:27;;;;;;;;;2.25;2.25;;;;;19.73;49.40;101183.72;5087161;27;45391;-74
2022/05/22 05:30:53;;;;;;;;;2.75;2.75;;;;;19.75;49.43;101191.78;5068157;27;45574;-74
2022/05/22 05:33:19;;;;;;;;;2.25;2.25;;;;;19.85;49.57;101211.03;5087383;27;47454;-74
2022/05/22 05:35:44;;;;;;;;;4.00;4.00;;;;;19.88;49.47;101217.09;5072155;27;45376;-74
2022/05/22 05:38:11;;;;;;;;;9.00;7.25;;;;;19.78;49.39;101205.13;5073844;27;45298;-74
2022/05/22 05:40:38;;;;;;;;;8.00;6.00;;;;;19.92;48.97;101226.75;5076039;27;45480;-74
2022/05/22 05:43:04;;;;;;;;;9.75;6.75;;;;;19.86;49.42;101208.19;5079523;28;46077;-74
2022/05/22 05:45:29;;;;;;;;;6.50;6.50;;;;;20.01;49.40;101230.72;5075576;27;45669;-74
2022/05/22 05:47:55;;;;;;;;;8.00;8.00;;;;;19.76;49.53;101191.69;5074149;27;45523;-74
2022/05/22 05:50:22;;;;;;;;;7.00;6.00;;;;;19.97;49.28;101230.03;5096917;27;45294;-74
2022/05/22 05:52:55;;;;;;;;;7.00;6.50;;;;;20.06;49.15;101241.25;5080616;27;46241;-74
2022/05/22 05:55:21;;;;;;;;;4.00;4.00;;;;;19.95;49.15;101218.44;5084907;27;45374;-74
2022/05/22 05:57:58;;;;;;;;;3.25;3.25;;;;;20.05;49.24;101234.13;5099613;27;45355;-74
2022/05/22 06:00:24;;;;;;;;;3.00;2.50;;;;;19.82;49.21;101182.28;5080716;27;45430;-74
2022/05/22 06:02:50;;;;;;;;;2.25;2.25;;;;;19.96;49.11;101200.34;5065890;27;46116;-74
2022/05/22 06:05:16;;;;;;;;;3.00;3.00;;;;;19.96;49.33;101200.34;5080206;28;45235;-74
2022/05/22 06:07:41;;;;;;;;;4.75;3.00;;;;;19.91;48.72;101186.22;5083913;27;45296;-74
2022/05/22 06:10:09;;;;;;;;;4.00;3.00;;;;;19.89;48.81;101180.91;5090635;27;45547;-74
2022/05/22 06:12:35;;;;;;;;;4.50;3.00;;;;;19.94;49.13;101191.44;5082109;27;48406;-74
2022/05/22 06:15:01;;;;;;;;;2.75;2.50;;;;;19.80;49.09;101162.56;5099532;27;45405;-74
2022/05/22 06:17:37;;;;;;;;;5.00;3.00;;;;;19.98;48.98;101185.72;5096113;27;45510;-74
2022/05/22 06:20:07;;;;;;;;;2.75;2.75;;;;;20.06;48.92;101187.06;5068738;28;45484;-74
2022/05/22 06:22:34;;;;;;;;;3.50;3.00;;;;;20.04;48.95;101172.75;5065276;28;47723;-75
2022/05/22 06:25:01;;;;;;;;;3.75;3.75;;;;;19.99;49.17;101159.50;5060161;28;45554;-75
2022/05/22 06:27:26;;;;;;;;;3.75;3.50;;;;;19.98;49.19;101155.94;5059220;28;45329;-85
2022/05/22 06:29:52;;;;;;;;;2.00;2.00;;;;;20.05;49.08;101164.53;5061336;28;45512;-80
2022/05/22 06:32:19;;;;;;;;;5.00;3.25;;;;;20.04;49.17;101153.78;5077415;27;45560;-82
2022/05/22 06:34:47;;;;;;;;;3.50;3.00;;;;;20.07;49.43;101154.44;5066320;27;45343;-86
2022/05/22 06:37:15;;;;;;;;;3.00;3.00;;;;;20.02;48.93;101132.22;5052626;28;45496;-83
2022/05/22 06:39:50;;;;;;;;;3.75;3.00;;;;;19.76;48.91;101105.00;5076546;27;45520;-83
2022/05/22 06:42:25;;;;;;;;;4.00;3.00;;;;;19.90;49.09;101133.88;5075367;27;46154;-83
2022/05/22 06:44:51;;;;;;;;;3.00;3.00;;;;;19.80;49.36;101108.38;5075262;28;45376;-84
2022/05/22 06:47:17;;;;;;;;;2.50;2.50;;;;;19.82;49.39;101122.69;5079442;28;45524;-80
2022/05/22 06:49:43;;;;;;;;;5.00;4.00;;;;;19.66;49.41;101100.22;5079644;27;45554;-81
2022/05/22 06:52:08;;;;;;;;;2.25;2.25;;;;;19.87;49.30;101127.81;5093617;27;47089;-81
2022/05/22 06:54:34;;;;;;;;;5.00;2.50;;;;;19.80;49.10;101124.63;5078337;27;45331;-81
2022/05/22 06:56:59;;;;;;;;;3.00;3.00;;;;;19.65;49.22;101098.50;5080414;27;45436;-80
2022/05/22 06:59:25;;;;;;;;;3.00;3.00;;;;;19.75;49.38;101105.97;5062976;27;47149;-85
2022/05/22 07:01:50;;;;;;;;;3.25;1.50;;;;;19.69;49.54;101091.91;5068531;28;46079;-85
2022/05/22 07:04:15;;;;;;;;;3.50;3.00;;;;;19.91;49.41;101129.31;5081789;27;45590;-85
2022/05/22 07:06:41;;;;;;;;;2.25;2.25;;;;;19.80;49.66;101124.63;5066759;27;45560;-84
2022/05/22 07:09:07;;;;;;;;;4.00;3.75;;;;;19.85;49.98;101124.34;5064569;28;45445;-83
2022/05/22 07:11:38;;;;;;;;;3.00;3.00;;;;;19.87;49.41;101130.50;5071558;28;46276;-85
2022/05/22 07:14:04;;;;;;;;;4.50;4.00;;;;;19.86;49.57;101115.22;5069161;27;45683;-84
2022/05/22 07:16:31;;;;;;;;;2.75;2.00;;;;;20.11;49.51;101123.47;5073097;28;45222;-75
2022/05/22 07:18:57;;;;;;;;;5.00;2.25;;;;;19.88;49.35;101084.38;5076199;27;45484;-75
2022/05/22 07:21:24;;;;;;;;;2.00;2.00;;;;;19.97;49.23;101104.56;5075795;28;46563;-84
2022/05/22 07:23:50;;;;;;;;;1.25;1.25;;;;;19.92;49.21;101101.28;5071367;27;45897;-85
2022/05/22 07:26:18;;;;;;;;;2.00;2.00;;;;;20.00;49.23;101104.34;5077527;28;45533;-85
2022/05/22 07:28:44;;;;;;;;;2.00;2.00;;;;;19.95;48.77;101077.56;5089614;27;45703;-84
2022/05/22 07:31:20;;;;;;;;;3.00;2.25;;;;;20.03;49.33;101065.31;5067163;27;47554;-84
2022/05/22 07:33:46;;;;;;;;;2.00;2.00;;;;;19.92;49.27;101058.78;5066727;28;45449;-83
2022/05/22 07:36:11;;;;;;;;;1.00;1.00;;;;;19.96;49.48;101054.91;5069402;27;45504;-83
2022/05/22 07:38:37;;;;;;;;;2.25;2.25;;;;;20.11;49.32;101082.84;5080060;27;45194;-71
2022/05/22 07:41:03;;;;;;;;;1.75;1.75;;;;;20.26;49.54;101108.00;5082721;27;48149;-72
2022/05/22 07:43:28;;;;;;;;;3.00;3.00;;;;;20.31;49.17;101115.84;5071033;27;45258;-72
2022/05/22 07:45:54;;;;;;;;;2.50;2.50;;;;;20.36;48.69;101122.72;5073033;27;45548;-71
2022/05/22 07:48:20;;;;;;;;;4.25;3.50;;;;;20.38;49.27;101127.13;5078053;27;45467;-71
2022/05/22 07:50:46;;;;;;;;;4.00;3.25;;;;;20.40;48.90;101119.75;5067677;28;46807;-71
2022/05/22 07:53:12;;;;;;;;;3.75;2.25;;;;;20.24;48.62;101076.56;5087422;27;45472;-71
2022/05/22 07:55:39;;;;;;;;;3.25;1.00;;;;;20.37;48.52;101088.31;5077119;27;45309;-71
2022/05/22 07:58:05;;;;;;;;;2.00;2.00;;;;;20.34;48.80;101062.28;5083098;27;45235;-71
2022/05/22 08:00:30;;;;;;;;;2.00;2.00;;;;;20.23;48.75;101043.19;5080366;27;46499;-71
2022/05/22 08:02:59;;;;;;;;;5.50;3.75;;;;;20.52;48.52;101098.09;5083146;27;45691;-72
2022/05/22 08:05:24;;;;;;;;;2.00;1.00;;;;;20.33;49.09;101044.28;5076596;28;46311;-70
2022/05/22 08:07:50;;;;;;;;;2.00;2.00;;;;;20.58;48.41;101079.69;5068627;28;45707;-74
2022/05/22 08:10:17;;;;;;;;;4.50;4.00;;;;;20.58;48.48;101072.44;5082394;27;45496;-74
2022/05/22 08:12:47;;;;;;;;;4.00;3.75;;;;;20.41;49.27;101032.91;5082016;27;45416;-74
2022/05/22 08:15:18;;;;;;;;;3.50;2.00;;;;;20.63;49.05;101058.56;5062038;28;45523;-74
2022/05/22 08:17:44;;;;;;;;;5.00;3.00;;;;;20.50;49.12;101020.56;5061200;28;45353;-72
2022/05/22 08:20:20;;;;;;;;;2.00;2.00;;;;;20.68;49.04;101037.41;5067994;27;45428;-70
2022/05/22 08:22:46;;;;;;;;;2.25;2.00;;;;;20.52;48.27;100988.78;5061827;27;45551;-70
2022/05/22 08:25:18;;;;;;;;;5.00;3.75;;;;;20.85;48.72;101034.38;5079390;28;45255;-69
2022/05/22 08:27:44;;;;;;;;;3.00;3.00;;;;;20.78;48.63;101005.06;5079347;27;45401;-69
2022/05/22 08:30:11;;;;;;;;;3.25;3.25;;;;;20.62;48.81;100981.72;5077390;28;47182;-69
2022/05/22 08:32:38;;;;;;;;;5.00;4.00;;;;;20.86;49.01;101024.38;5075119;27;45520;-71
2022/05/22 08:35:05;;;;;;;;;3.00;3.00;;;;;20.86;48.73;101014.41;5078185;27;45528;-70
2022/05/22 08:37:32;;;;;;;;;4.50;3.50;;;;;20.69;49.01;100983.06;5066363;27;45343;-70
2022/05/22 08:39:57;;;;;;;;;6.00;4.00;;;;;20.84;48.65;101008.22;5069219;28;45482;-71
2022/05/22 08:42:50;;;;;;;;;3.00;3.00;;;;;20.84;48.88;101001.94;5064046;28;45349;-70
2022/05/22 08:45:15;;;;;;;;;2.25;2.00;;;;;21.12;48.59;101029.78;5067413;28;45440;-70
2022/05/22 08:47:59;;;;;;;;;3.50;3.00;;;;;20.98;48.54;101004.53;5061683;28;45345;-70
2022/05/22 08:50:25;;;;;;;;;3.25;2.00;;;;;21.15;48.50;101025.03;5072536;28;46098;-70
2022/05/22 08:52:59;;;;;;;;;2.00;2.00;;;;;21.24;48.53;101015.34;5071447;28;45497;-68
2022/05/22 08:58:56;;;;;;;;;4.00;2.00;;;;;21.42;48.79;101033.00;5073373;27;45267;-79
2022/05/22 09:01:09;;;;;;;;;3.00;3.00;;;;;21.42;47.33;101037.56;5071809;28;45482;-74
2022/05/22 09:03:57;;;;;;;;;2.00;2.00;;;;;21.24;47.29;100997.19;5071314;28;45421;-82
2022/05/22 09:06:30;;;;;;;;;3.75;2.00;;;;;21.40;47.17;101026.81;5064402;28;45296;-82
2022/05/22 09:08:56;;;;;;;;;3.00;3.00;;;;;21.49;46.80;101027.16;5072800;27;45294;-82
2022/05/22 09:11:30;;;;;;;;;3.00;2.00;;;;;21.54;47.09;101017.66;5095286;27;45329;-81
2022/05/22 09:14:51;;;;;;;;;2.75;2.75;;;;;21.52;47.10;101005.16;5070647;27;45410;-81
2022/05/22 09:17:22;;;;;;;;;2.50;2.50;;;;;21.65;47.11;101015.03;5068298;27;45692;-82
2022/05/22 09:19:56;;;;;;;;;2.50;2.50;;;;;21.68;46.85;101011.19;5069659;28;45165;-82
2022/05/22 09:22:50;;;;;;;;;2.00;2.00;;;;;21.73;47.19;101014.44;5066054;28;45219;-82
2022/05/22 09:25:35;;;;;;;;;5.00;5.00;;;;;21.78;47.12;101023.09;5074353;28;45510;-82
2022/05/22 09:28:23;;;;;;;;;3.00;3.00;;;;;21.82;47.21;101000.16;5070280;28;45282;-81
2022/05/22 09:31:27;;;;;;;;;4.00;4.00;;;;;21.88;46.65;100997.97;5068326;27;45346;-82
2022/05/22 09:34:11;;;;;;;;;3.00;3.00;;;;;21.91;46.95;100995.00;5078570;27;46905;-82
2022/05/22 09:36:39;;;;;;;;;4.00;2.75;;;;;21.93;46.99;100993.91;5072571;27;45224;-82
2022/05/22 09:39:36;;;;;;;;;3.00;3.00;;;;;21.95;45.93;100991.97;5072652;27;45373;-82
2022/05/22 09:42:43;;;;;;;;;3.00;3.00;;;;;21.95;46.81;100983.81;5067471;28;45504;-81
2022/05/22 09:45:32;;;;;;;;;2.25;2.00;;;;;21.95;46.94;100961.16;5064712;27;47165;-77
2022/05/22 09:48:19;;;;;;;;;3.50;2.25;;;;;22.04;46.77;100970.50;5060876;28;45174;-80
2022/05/22 09:51:12;;;;;;;;;4.00;3.00;;;;;22.06;45.40;100966.66;5070841;28;45306;-80
2022/05/22 09:53:57;;;;;;;;;2.50;2.50;;;;;22.09;45.46;100960.97;5066621;28;45434;-80
2022/05/22 09:56:23;;;;;;;;;1.75;1.75;;;;;22.07;44.84;100957.53;5084256;27;46174;-77
2022/05/22 09:59:22;;;;;;;;;0.75;0.00;;;;;22.08;45.47;100951.09;5071607;28;45330;-78
2022/05/22 10:01:54;;;;;;;;;4.00;2.50;;;;;22.08;44.26;100951.09;5059138;28;45466;-79
2022/05/22 10:04:49;;;;;;;;;3.00;2.00;;;;;22.08;44.20;100934.78;5060663;28;45329;-76
2022/05/22 10:07:51;;;;;;;;;2.25;2.25;;;;;22.06;44.17;100912.28;5060757;28;45670;-78
2022/05/22 10:10:30;;;;;;;;;1.75;1.75;;;;;22.01;44.00;100898.19;5060474;27;46095;-80
2022/05/22 10:13:14;;;;;;;;;3.00;3.00;;;;;22.09;44.52;100898.47;5069393;27;45764;-78
2022/05/22 10:15:59;;;;;;;;;4.00;2.25;;;;;22.10;44.72;100905.66;5079686;27;45442;-78
2022/05/22 10:18:43;;;;;;;;;2.00;2.00;;;;;22.10;44.86;100910.19;5074835;27;46160;-79
2022/05/22 10:21:16;;;;;;;;;2.00;2.00;;;;;22.07;44.14;100905.00;5078216;27;45399;-81
2022/05/22 10:24:30;;;;;;;;;2.00;2.00;;;;;22.13;45.07;100920.84;5071560;28;45782;-81
2022/05/22 10:27:14;;;;;;;;;2.00;2.00;;;;;22.14;44.28;100901.69;5046251;28;45772;-84
2022/05/22 10:29:55;;;;;;;;;2.25;2.00;;;;;22.12;44.46;100876.47;5056334;28;45733;-79
2022/05/22 10:32:27;;;;;;;;;3.00;3.00;;;;;22.18;44.83;100888.72;5084088;27;45762;-79
2022/05/22 10:35:09;;;;;;;;;3.00;2.75;;;;;22.23;44.98;100882.91;5076160;27;45737;-79
2022/05/22 10:37:51;;;;;;;;;2.50;2.50;;;;;22.24;45.11;100863.75;5080396;27;45423;-78
2022/05/22 10:40:23;;;;;;;;;4.00;3.00;;;;;22.21;45.04;100851.25;5077555;27;45547;-77
2022/05/22 10:42:53;;;;;;;;;3.00;3.00;;;;;22.19;45.13;100839.66;5083656;27;45654;-75
2022/05/22 10:45:32;;;;;;;;;3.00;3.00;;;;;22.23;45.29;100837.53;5069465;27;45553;-71
2022/05/22 10:48:08;;;;;;;;;3.50;3.50;;;;;22.22;45.26;100841.28;5068650;27;45239;-73
2022/05/22 10:50:34;;;;;;;;;2.00;2.00;;;;;22.20;45.51;100819.66;5079928;27;45465;-73
2022/05/22 10:52:59;;;;;;;;;2.75;2.00;;;;;22.20;45.25;100813.31;5079905;27;45697;-72
2022/05/22 10:55:28;;;;;;;;;2.00;2.00;;;;;22.27;45.79;100816.41;5085033;27;45338;-72
2022/05/22 10:57:57;;;;;;;;;3.50;2.00;;;;;22.27;45.92;100809.13;5084793;27;45523;-72
2022/05/22 11:00:23;;;;;;;;;3.00;3.00;;;;;22.28;45.51;100796.41;5080069;27;46079;-73
2022/05/22 11:02:49;;;;;;;;;5.25;5.00;;;;;22.27;45.79;100803.69;5075361;27;45230;-73
2022/05/22 11:05:29;;;;;;;;;4.00;3.00;;;;;22.23;46.20;100806.78;5079835;27;45695;-72
2022/05/22 11:07:57;;;;;;;;;4.50;4.50;;;;;22.23;46.16;100807.63;5079629;27;45514;-72
2022/05/22 11:10:26;;;;;;;;;3.00;3.00;;;;;22.21;46.48;100818.63;5088102;27;46113;-72
2022/05/22 11:13:05;;;;;;;;;4.00;4.00;;;;;22.23;46.91;100828.53;5080484;27;45406;-72
2022/05/22 11:15:37;;;;;;;;;3.50;3.50;;;;;22.24;47.32;100824.84;5079906;27;45307;-72
2022/05/22 11:18:05;;;;;;;;;3.50;3.50;;;;;22.17;48.26;100840.78;5063714;27;45444;-72
2022/05/22 11:20:31;;;;;;;;;4.00;4.00;;;;;22.13;48.43;100837.41;5071591;28;47811;-72
2022/05/22 11:23:18;;;;;;;;;6.00;4.00;;;;;22.13;48.27;100837.41;5059486;28;45429;-72
2022/05/22 11:25:58;;;;;;;;;3.50;3.00;;;;;22.00;49.20;100821.22;5073060;28;45296;-72
2022/05/22 11:28:34;;;;;;;;;4.50;3.00;;;;;22.04;48.57;100827.28;5058193;28;45293;-73
2022/05/22 11:30:59;;;;;;;;;5.00;5.00;;;;;22.05;48.55;100825.44;5070257;27;45467;-72
2022/05/22 11:34:04;;;;;;;;;3.25;3.00;;;;;22.00;48.72;100821.22;5074740;27;45211;-72
2022/05/22 11:36:55;;;;;;;;;5.25;4.25;;;;;21.98;49.70;100814.19;5069522;27;45366;-72
2022/05/22 11:39:42;;;;;;;;;6.50;5.75;;;;;21.98;49.31;100825.03;5074824;27;45290;-72
2022/05/22 11:42:14;;;;;;;;;5.50;5.50;;;;;21.96;49.91;100821.59;5060243;27;45429;-72
2022/05/22 11:44:58;;;;;;;;;6.25;5.00;;;;;22.00;49.93;100828.50;5059154;28;45397;-72